Latest Weather Observations for Middle Point

IDD60801

Issued at 7:31 pm CST Saturday 31 January 2015 (issued every 30 minutes, with the page automatically refreshed every 10 minutes)

About weather observations | Map of weather stations | Latest weather observations for NT | Other Formats
Station Details ID: 014041 Name: MIDDLE POINT Lat: -12.61 Lon: 131.30 Height: 14.1 m
Data from the previous 72 hours. | See also: Recent months at Middle Point
Date/Time
CST
Temp
°C
App
Temp
°C
Dew
Point
Rel
Hum
%
Delta-T
°C
Wind Press
QNH
hPa
Press
MSL
hPa
Rain
since 9 am
mm
Dir
 
Spd
km/h
Gust
km/h
Spd
kts
Gust
kts
31/07:30pm 28.6 32.6 23.7 75 3.4 W 9 13 5 7 1006.1 1006.0 1.4
31/07:00pm 29.1 33.9 24.2 75 3.4 WSW 6 7 3 4 1005.7 1005.6 1.4
31/06:30pm 29.2 33.0 23.4 71 4.0 S 9 15 5 8 1005.8 1005.7 1.4
31/06:00pm 31.6 34.4 23.7 63 5.5 W 15 22 8 12 1005.7 1005.6 1.4
31/05:30pm 31.9 34.3 23.7 62 5.7 W 17 24 9 13 1005.5 1005.4 1.4
31/05:00pm 32.8 35.0 24.0 60 6.1 WNW 19 26 10 14 1005.4 1005.3 1.4
31/04:30pm 32.3 34.4 24.1 62 5.7 WNW 20 30 11 16 1005.6 1005.5 1.4
31/04:00pm 33.4 35.1 23.4 55 6.9 W 20 32 11 17 1005.3 1005.2 1.4
31/03:30pm 33.6 35.6 23.6 56 7.0 W 19 28 10 15 1005.7 1005.6 1.4
31/03:00pm 30.9 32.6 23.0 62 5.4 W 19 26 10 14 1005.7 1005.6 1.4
31/02:30pm 31.7 34.3 24.6 66 5.0 SW 19 26 10 14 1006.1 1006.0 1.4
31/02:00pm 32.7 34.9 25.5 66 5.1 WNW 24 33 13 18 1006.4 1006.3 1.4
31/01:30pm 29.2 31.5 23.4 71 4.0 WNW 17 20 9 11 1006.9 1006.8 1.4
31/01:00pm 26.4 27.1 22.9 81 2.4 WNW 24 33 13 18 1007.6 1007.5 1.0
31/12:51pm 29.1 28.1 21.3 62 5.2 W 28 43 15 23 1007.9 1007.8 0.2
31/12:30pm 33.2 36.1 24.4 60 6.2 WSW 17 24 9 13 1007.7 1007.6 0.2
31/12:00pm 31.4 33.6 21.8 56 6.5 W 13 19 7 10 1008.3 1008.2 0.2
31/11:30am 28.7 28.3 20.2 60 5.6 SW 22 35 12 19 1008.6 1008.5 0.2
31/11:00am 32.3 35.0 24.1 62 5.7 W 17 22 9 12 1008.6 1008.5 0.2
31/10:30am 31.5 33.7 23.9 64 5.3 W 19 26 10 14 1008.9 1008.8 0.2
31/10:00am 30.2 33.3 24.8 73 3.8 WNW 17 24 9 13 1009.1 1009.0 0.2
31/09:30am 29.6 33.8 25.4 78 3.0 WNW 13 22 7 12 1008.9 1008.8 0.2
31/09:00am 28.4 33.3 25.2 83 2.2 NW 9 13 5 7 1008.7 1008.6 6.8
31/08:30am 27.1 32.2 24.9 88 1.5 NNW 7 11 4 6 1008.8 1008.7 6.8
31/08:00am 25.8 31.3 24.6 93 0.8 NNW 4 6 2 3 1008.6 1008.5 6.8
31/07:30am 24.8 30.2 23.8 94 0.7 NNW 2 6 1 3 1008.4 1008.3 6.6
31/07:00am 23.6 27.8 22.4 93 0.8 NNW 4 4 2 2 1008.1 1008.0 6.6
31/06:30am 23.3 28.1 22.1 93 0.8 CALM 0 2 0 1 1007.8 1007.7 6.6
31/06:00am 23.5 27.2 22.3 93 0.8 NNW 6 6 3 3 1007.5 1007.4 6.6
31/05:30am 23.6 27.8 22.4 93 0.8 NNW 4 4 2 2 1007.2 1007.1 6.6
31/05:00am 23.6 28.2 22.4 93 0.8 NW 2 4 1 2 1007.0 1006.9 6.6
31/04:30am 23.6 27.8 22.4 93 0.8 NNW 4 6 2 3 1007.0 1006.9 6.6
31/04:00am 23.8 28.1 22.6 93 0.8 N 4 4 2 2 1007.0 1006.9 6.6
31/03:30am 23.9 29.0 22.7 93 0.8 CALM 0 0 0 0 1007.2 1007.1 6.6
31/03:00am 24.1 29.2 22.7 92 0.9 CALM 0 0 0 0 1007.3 1007.2 6.6
31/02:30am 24.2 29.4 22.8 92 0.9 CALM 0 2 0 1 1008.0 1007.9 6.6
31/02:00am 24.3 29.5 22.9 92 0.9 CALM 0 0 0 0 1008.2 1008.1 6.6
31/01:30am 24.5 29.8 23.1 92 0.9 CALM 0 0 0 0 1008.5 1008.4 6.6
31/01:00am 24.6 30.0 23.2 92 0.9 CALM 0 0 0 0 1008.7 1008.6 6.6
31/12:30am 24.7 30.0 23.1 91 1.1 CALM 0 0 0 0 1009.0 1008.9 6.6
31/12:00am 24.9 30.3 23.3 91 1.1 CALM 0 0 0 0 1009.3 1009.2 6.6
 
Date/Time
CST
Temp
°C
App
Temp
°C
Dew
Point
Rel
Hum
%
Delta-T
°C
Wind Press
QNH
hPa
Press
MSL
hPa
Rain
since 9 am
mm
Dir
 
Spd
km/h
Gust
km/h
Spd
kts
Gust
kts
30/11:30pm 25.0 30.5 23.4 91 1.1 CALM 0 0 0 0 1009.6 1009.5 6.6
30/11:00pm 25.0 29.7 23.4 91 1.1 SSW 4 6 2 3 1009.7 1009.6 6.6
30/10:30pm 25.0 29.7 23.4 91 1.1 SSW 4 6 2 3 1009.7 1009.6 6.6
30/10:00pm 25.0 29.7 23.4 91 1.1 SSW 4 6 2 3 1009.3 1009.2 6.6
30/09:30pm 24.8 28.9 23.0 90 1.2 NW 6 9 3 5 1008.9 1008.8 6.6
30/09:00pm 25.0 28.6 23.1 89 1.3 WNW 9 15 5 8 1008.8 1008.7 6.4
30/08:30pm 25.4 29.6 23.5 89 1.3 W 7 9 4 5 1008.5 1008.4 5.6
30/08:00pm 25.4 29.0 23.8 91 1.1 W 11 15 6 8 1008.1 1008.0 5.6
30/07:30pm 24.8 29.0 23.2 91 1.1 W 6 7 3 4 1007.9 1007.8 5.6
30/07:00pm 24.7 29.2 22.9 90 1.2 NW 4 6 2 3 1007.2 1007.1 5.6
30/06:30pm 24.7 29.1 22.8 89 1.3 W 4 6 2 3 1006.8 1006.7 5.6
30/06:00pm 24.5 26.0 22.0 86 1.7 W 17 24 9 13 1006.7 1006.6 5.4
30/05:30pm 27.5 33.2 24.4 83 2.2 NNW 2 4 1 2 1006.3 1006.2 3.2
30/05:00pm 27.4 32.9 24.1 82 2.3 WNW 2 2 1 1 1005.9 1005.8 3.2
30/04:30pm 27.2 32.6 23.2 79 2.7 CALM 0 2 0 1 1005.6 1005.5 3.2
30/04:00pm 27.0 32.7 23.7 82 2.3 CALM 0 2 0 1 1005.7 1005.6 3.2
30/03:30pm 26.7 31.7 23.8 84 2.0 E 4 6 2 3 1005.8 1005.7 3.2
30/03:00pm 26.7 31.1 23.8 84 2.0 SSE 7 9 4 5 1006.4 1006.3 3.2
30/02:30pm 27.3 31.4 23.3 79 2.7 SW 7 9 4 5 1006.7 1006.6 3.2
30/02:00pm 26.8 29.5 22.8 79 2.7 WNW 13 20 7 11 1007.2 1007.1 3.2
30/01:30pm 26.9 28.1 23.2 80 2.5 NW 22 41 12 22 1007.2 1007.1 3.0
30/01:25pm 27.3 28.1 21.3 69 4.0 WNW 19 41 10 22 1007.2 1007.1 0.8
30/01:00pm 32.4 35.3 23.1 58 6.4 WNW 13 22 7 12 1007.1 1007.0 0.2
30/12:30pm 33.8 37.2 24.1 57 6.8 NW 13 19 7 10 1007.5 1007.4 0.2
30/12:00pm 32.1 34.7 23.3 59 6.1 NW 15 20 8 11 1008.1 1008.0 0.2
30/11:30am 32.2 35.5 23.2 59 6.2 WNW 11 19 6 10 1008.4 1008.3 0.2
30/11:00am 30.4 33.3 23.1 65 5.0 NW 13 20 7 11 1008.6 1008.5 0.2
30/10:30am 30.4 35.0 24.1 69 4.4 NW 7 13 4 7 1008.7 1008.6 0.2
30/10:00am 29.0 32.7 23.9 74 3.5 NW 11 15 6 8 1008.8 1008.7 0.2
30/09:30am 29.4 34.5 24.7 76 3.3 NNW 6 11 3 6 1008.6 1008.5 0.2
30/09:00am 28.8 34.8 24.8 79 2.8 WNW 2 6 1 3 1008.5 1008.4 20.0
30/08:30am 27.8 32.8 24.8 84 2.1 W 7 11 4 6 1008.3 1008.2 20.0
30/08:00am 26.4 31.9 24.6 90 1.2 WNW 4 4 2 2 1007.9 1007.8 20.0
30/07:30am 25.7 31.8 24.5 93 0.8 CALM 0 2 0 1 1006.9 1006.8 20.0
30/07:00am 24.4 29.0 23.2 93 0.8 SE 4 7 2 4 1006.3 1006.2 20.0
30/06:30am 23.7 27.9 22.5 93 0.8 SE 4 4 2 2 1006.2 1006.1 20.0
30/06:00am 24.1 28.8 22.7 92 0.9 SE 2 4 1 2 1006.2 1006.1 20.0
30/05:30am 24.2 29.4 22.8 92 0.9 CALM 0 0 0 0 1006.2 1006.1 20.0
30/05:00am 24.6 28.8 23.2 92 0.9 NNW 6 7 3 4 1006.3 1006.2 20.0
30/04:30am 24.7 28.5 23.5 93 0.8 NW 9 11 5 6 1006.3 1006.2 20.0
30/04:00am 24.1 28.1 22.7 92 0.9 NW 6 7 3 4 1006.3 1006.2 19.8
30/03:30am 24.3 28.8 22.9 92 0.9 NNW 4 4 2 2 1006.3 1006.2 19.8
30/03:00am 24.5 29.0 22.9 91 1.1 NW 4 6 2 3 1006.3 1006.2 19.8
30/02:30am 24.7 28.7 23.1 91 1.1 NW 7 9 4 5 1006.4 1006.3 19.8
30/02:00am 24.8 28.1 23.2 91 1.1 NNW 11 15 6 8 1006.9 1006.8 19.8
30/01:30am 24.7 27.9 23.1 91 1.1 NNW 11 13 6 7 1007.3 1007.2 19.8
30/01:00am 24.7 27.8 22.9 90 1.2 NNW 11 15 6 8 1007.6 1007.5 19.8
30/12:30am 24.5 28.0 22.9 91 1.1 NNW 9 13 5 7 1007.9 1007.8 19.8
30/12:00am 24.3 27.4 22.9 92 0.9 NNW 11 13 6 7 1008.3 1008.2 19.8
 
Date/Time
CST
Temp
°C
App
Temp
°C
Dew
Point
Rel
Hum
%
Delta-T
°C
Wind Press
QNH
hPa
Press
MSL
hPa
Rain
since 9 am
mm
Dir
 
Spd
km/h
Gust
km/h
Spd
kts
Gust
kts
29/11:30pm 24.2 27.8 23.0 93 0.8 NNW 9 11 5 6 1008.4 1008.3 19.8
29/11:00pm 24.0 27.8 22.8 93 0.8 NNW 7 9 4 5 1008.4 1008.3 19.8
29/10:30pm 24.0 28.0 22.8 93 0.8 NW 6 9 3 5 1008.4 1008.3 19.8
29/10:00pm 23.9 28.9 22.5 92 0.9 CALM 0 0 0 0 1008.2 1008.1 19.8
29/09:30pm 24.1 28.8 22.7 92 0.9 N 2 4 1 2 1007.8 1007.7 19.8
29/09:00pm 24.1 28.4 22.7 92 0.9 SW 4 7 2 4 1007.5 1007.4 19.6
29/08:30pm 24.0 27.3 22.6 92 0.9 SSE 9 13 5 7 1007.4 1007.3 19.2
29/08:00pm 23.8 26.2 22.2 91 1.1 SE 13 17 7 9 1007.2 1007.1 18.6
29/07:30pm 23.7 27.3 22.3 92 0.9 SW 7 13 4 7 1006.2 1006.1 18.4
29/07:00pm 22.9 26.6 21.4 91 1.0 NE 4 9 2 5 1006.4 1006.3 16.8
29/06:30pm 23.6 22.4 21.5 88 1.4 NNE 30 39 16 21 1006.4 1006.3 2.6
29/06:23pm 24.3 23.3 21.2 83 2.0 N 28 39 15 21 1005.8 1005.7 1.0
29/06:00pm 28.7 31.4 22.9 71 4.0 W 13 17 7 9 1004.5 1004.4 0.2
29/05:30pm 31.9 37.5 24.2 63 5.4 NE 2 4 1 2 1004.0 1003.9 0.2
29/05:00pm 32.7 36.8 22.2 54 7.2 ESE 4 6 2 3 1003.6 1003.5 0.2
29/04:30pm 32.9 36.1 20.4 47 8.4 E 4 7 2 4 1003.4 1003.3 0.2
29/04:00pm 34.2 37.8 22.3 50 8.2 SSE 7 15 4 8 1003.0 1002.9 0.2
29/03:30pm 34.2 37.2 20.9 45 9.0 SSW 6 13 3 7 1003.6 1003.5 0.2
29/03:00pm 33.1 35.4 21.3 50 8.0 SE 11 15 6 8 1004.1 1004.0 0.2
29/02:30pm 34.0 38.0 22.1 50 8.2 WNW 4 13 2 7 1004.2 1004.1 0.2
29/02:00pm 34.0 37.6 23.1 53 7.5 SSW 9 17 5 9 1004.7 1004.6 0.2
29/01:30pm 33.4 37.7 23.7 56 6.8 S 7 13 4 7 1005.1 1005.0 0.2
29/01:00pm 32.6 37.3 23.3 58 6.4 ENE 4 7 2 4 1005.8 1005.7 0.2
29/12:30pm 32.5 37.9 25.1 65 5.2 NW 6 9 3 5 1006.4 1006.3 0.2
29/12:00pm 31.1 35.8 24.0 66 4.9 N 6 11 3 6 1006.8 1006.7 0.2
29/11:30am 30.6 35.0 23.5 66 4.9 NNW 6 9 3 5 1007.2 1007.1 0.0
29/11:00am 29.2 34.2 23.2 70 4.1 NNW 2 7 1 4 1007.5 1007.4 0.0
29/10:30am 28.8 33.0 22.5 68 4.3 N 4 6 2 3 1007.7 1007.6 0.0
29/10:00am 28.5 33.7 23.6 75 3.4 SE 2 4 1 2 1007.7 1007.6 0.0
29/09:30am 26.7 31.5 22.8 79 2.6 SSE 2 4 1 2 1007.6 1007.5 0.0
29/09:00am 25.9 30.6 23.4 86 1.7 ESE 4 6 2 3 1007.5 1007.4 2.0
29/08:30am 25.4 29.8 23.5 89 1.3 ESE 6 7 3 4 1007.0 1006.9 2.0
29/08:00am 24.6 29.9 23.0 91 1.1 CALM 0 0 0 0 1006.9 1006.8 2.0
29/07:30am 24.2 29.5 23.0 93 0.8 CALM 0 2 0 1 1006.4 1006.3 2.0
29/07:00am 23.9 28.2 22.7 93 0.8 WSW 4 7 2 4 1005.8 1005.7 2.0
29/06:30am 23.9 28.5 22.5 92 0.9 S 2 4 1 2 1005.4 1005.3 2.0
29/06:00am 23.8 27.6 22.4 92 0.9 S 6 7 3 4 1005.3 1005.2 2.0
29/05:30am 23.7 27.2 22.1 91 1.1 S 7 13 4 7 1005.3 1005.2 2.0
29/05:00am 23.7 27.2 22.1 91 1.1 WNW 7 9 4 5 1005.4 1005.3 2.0
29/04:30am 23.9 28.0 22.3 91 1.1 NNE 4 7 2 4 1005.4 1005.3 2.0
29/04:00am 24.0 28.7 22.6 92 0.9 N 2 6 1 3 1005.7 1005.6 2.0
29/03:30am 24.1 28.3 22.5 91 1.1 NE 4 6 2 3 1005.8 1005.7 2.0
29/03:00am 24.1 28.1 22.7 92 0.9 E 6 11 3 6 1006.1 1006.0 2.0
29/02:30am 24.1 29.3 22.9 93 0.8 CALM 0 0 0 0 1006.4 1006.3 2.0
29/02:00am 24.1 28.6 22.9 93 0.8 SSW 4 6 2 3 1006.9 1006.8 2.0
29/01:30am 24.2 28.7 23.0 93 0.8 S 4 6 2 3 1007.2 1007.1 2.0
29/01:00am 24.0 27.9 22.6 92 0.9 SSW 6 7 3 4 1007.3 1007.2 2.0
29/12:30am 23.9 28.1 22.5 92 0.9 WNW 4 6 2 3 1006.9 1006.8 2.0
29/12:00am 24.0 27.9 22.6 92 0.9 NE 6 6 3 3 1007.2 1007.1 2.0
 
Date/Time
CST
Temp
°C
App
Temp
°C
Dew
Point
Rel
Hum
%
Delta-T
°C
Wind Press
QNH
hPa
Press
MSL
hPa
Rain
since 9 am
mm
Dir
 
Spd
km/h
Gust
km/h
Spd
kts
Gust
kts
28/11:30pm 23.9 27.8 22.5 92 0.9 NE 6 7 3 4 1007.5 1007.4 2.0
28/11:00pm 23.4 26.4 22.0 92 0.9 NNE 9 13 5 7 1007.7 1007.6 1.8
28/10:30pm 23.1 26.4 21.4 90 1.1 N 6 9 3 5 1007.7 1007.6 1.6
28/10:00pm 23.3 26.1 21.6 90 1.1 WNW 9 13 5 7 1007.3 1007.2 0.6
28/09:30pm 23.7 26.3 22.0 90 1.1 W 11 13 6 7 1007.6 1007.5 0.4
28/09:00pm 24.2 26.9 22.1 88 1.4 N 11 13 6 7 1007.5 1007.4 0.2
28/08:30pm 24.6 26.8 21.9 85 1.8 E 13 22 7 12 1006.8 1006.7 0.2
28/08:00pm 25.3 25.6 20.8 76 3.0 E 20 32 11 17 1006.7 1006.6 0.0

Other Formats:

Comma delimited format used in spreadsheet applications
http://www.bom.gov.au/fwo/IDD60801/IDD60801.95121.axf

JavaScript Object Notation format (JSON) in row-major order
http://www.bom.gov.au/fwo/IDD60801/IDD60801.95121.json